createdAt,value
2019-05-07T00:01:45.411Z,4.05
2019-05-07T00:04:12.992Z,3.95
2019-05-07T00:06:40.493Z,4.51
2019-05-07T00:09:08.990Z,4.17
2019-05-07T00:11:36.389Z,4.17
2019-05-07T00:14:04.142Z,4.51
2019-05-07T00:16:32.556Z,3.78
2019-05-07T00:19:02.038Z,3.61
2019-05-07T00:21:29.435Z,4.23
2019-05-07T00:23:56.854Z,4.84
2019-05-07T00:26:24.254Z,4.87
2019-05-07T00:28:52.644Z,4.16
2019-05-07T00:31:20.392Z,3.75
2019-05-07T00:33:47.784Z,4.09
2019-05-07T00:36:25.152Z,4.36
2019-05-07T00:38:58.599Z,4.48
2019-05-07T00:41:33.454Z,4.01
2019-05-07T00:44:03.240Z,3.86
2019-05-07T00:46:32.241Z,3.86
2019-05-07T00:49:02.265Z,4.46
2019-05-07T00:51:33.589Z,3.96
2019-05-07T00:54:03.641Z,4.02
2019-05-07T00:56:33.047Z,3.81
2019-05-07T00:59:02.191Z,4.23
2019-05-07T01:01:29.713Z,4.01
2019-05-07T01:03:57.122Z,3.82
2019-05-07T01:06:26.598Z,3.81
2019-05-07T01:08:53.833Z,4.37
2019-05-07T01:11:22.687Z,4.58
2019-05-07T01:13:52.045Z,4.18
2019-05-07T01:16:22.022Z,4.10
2019-05-07T01:18:49.033Z,4.68
2019-05-07T01:21:16.451Z,3.77
2019-05-07T01:23:43.872Z,3.88
2019-05-07T01:26:12.429Z,4.02
2019-05-07T01:28:58.239Z,3.91
2019-05-07T01:31:28.630Z,4.03
2019-05-07T01:34:09.287Z,3.87
2019-05-07T01:36:36.707Z,3.86
2019-05-07T01:39:05.185Z,3.95
2019-05-07T01:41:32.738Z,3.95
2019-05-07T01:44:02.034Z,3.83
2019-05-07T01:46:29.439Z,3.63
2019-05-07T01:48:57.526Z,4.21
2019-05-07T01:51:25.133Z,4.14
2019-05-07T01:53:52.547Z,3.70
2019-05-07T01:56:19.954Z,4.11
2019-05-07T01:58:47.314Z,3.71
2019-05-07T02:01:14.673Z,3.38
2019-05-07T02:03:57.958Z,3.48
2019-05-07T02:06:44.878Z,3.71
2019-05-07T02:09:42.477Z,3.89
2019-05-07T02:12:35.128Z,4.19
2019-05-07T02:15:03.025Z,4.34
2019-05-07T02:17:32.177Z,4.28
2019-05-07T02:19:59.757Z,3.68
2019-05-07T02:22:27.182Z,3.48
2019-05-07T02:24:54.640Z,3.61
2019-05-07T02:27:22.257Z,4.10
2019-05-07T02:29:49.779Z,4.12
2019-05-07T02:32:17.138Z,4.22
2019-05-07T02:34:44.573Z,4.32
2019-05-07T02:37:15.309Z,4.44
2019-05-07T02:40:04.884Z,4.35
2019-05-07T02:42:33.610Z,3.94
2019-05-07T02:45:23.811Z,3.68
2019-05-07T02:47:52.308Z,3.91
2019-05-07T02:50:27.522Z,3.28
2019-05-07T02:53:17.676Z,2.93
2019-05-07T02:55:45.027Z,3.22
2019-05-07T02:58:13.713Z,3.57
2019-05-07T03:00:43.434Z,3.48
2019-05-07T03:03:13.652Z,3.83
2019-05-07T03:05:42.851Z,3.88
2019-05-07T03:08:09.415Z,3.27
2019-05-07T03:10:36.778Z,2.36
2019-05-07T03:13:04.275Z,2.76
2019-05-07T03:15:33.179Z,2.73
2019-05-07T03:18:03.378Z,2.32
2019-05-07T03:20:37.195Z,2.35
2019-05-07T03:23:05.344Z,2.76
2019-05-07T03:25:53.854Z,2.21
2019-05-07T03:28:23.089Z,2.19
2019-05-07T03:30:57.428Z,2.01
2019-05-07T03:33:46.434Z,2.40
2019-05-07T03:36:15.954Z,1.92
2019-05-07T03:38:39.160Z,2.52
2019-05-07T03:41:06.536Z,2.15
2019-05-07T03:43:33.978Z,2.12
2019-05-07T03:46:19.514Z,2.95
2019-05-07T03:48:47.340Z,2.83
2019-05-07T03:51:14.813Z,2.28
2019-05-07T03:53:43.632Z,3.04
2019-05-07T03:56:13.042Z,3.07
2019-05-07T03:58:43.380Z,2.21
2019-05-07T04:01:13.156Z,1.59
2019-05-07T04:03:39.373Z,1.40
2019-05-07T04:06:06.744Z,1.45
2019-05-07T04:08:34.144Z,2.36
2019-05-07T04:11:03.677Z,2.74
2019-05-07T04:13:33.404Z,1.55
2019-05-07T04:16:03.640Z,2.67
2019-05-07T04:18:32.654Z,2.37
2019-05-07T04:20:58.864Z,2.01
2019-05-07T04:23:26.239Z,3.05
2019-05-07T04:26:03.457Z,3.04
2019-05-07T04:28:33.835Z,2.42
2019-05-07T04:31:03.020Z,2.72
2019-05-07T04:33:35.805Z,1.97
2019-05-07T04:36:09.948Z,2.34
2019-05-07T04:38:37.288Z,2.85
2019-05-07T04:41:04.656Z,3.08
2019-05-07T04:43:33.614Z,2.90
2019-05-07T04:46:03.114Z,2.09
2019-05-07T04:48:33.735Z,1.82
2019-05-07T04:51:03.605Z,1.70
2019-05-07T04:53:32.843Z,1.53
2019-05-07T04:56:03.062Z,1.92
2019-05-07T04:58:29.662Z,2.20
2019-05-07T05:00:57.166Z,1.89
2019-05-07T05:03:26.379Z,1.92
2019-05-07T05:05:53.765Z,2.37
2019-05-07T05:08:23.358Z,2.19
2019-05-07T05:10:50.374Z,1.82
2019-05-07T05:13:17.792Z,2.23
2019-05-07T05:15:46.436Z,2.37
2019-05-07T05:18:13.837Z,2.16
2019-05-07T05:20:59.735Z,1.91
2019-05-07T05:23:44.543Z,2.19
2019-05-07T05:26:12.553Z,3.12
2019-05-07T05:28:41.904Z,2.81
2019-05-07T05:31:09.292Z,2.52
2019-05-07T05:33:36.655Z,3.13
2019-05-07T05:36:04.131Z,2.94
2019-05-07T05:38:32.862Z,3.03
2019-05-07T05:41:02.724Z,2.84
2019-05-07T05:43:44.615Z,3.24
2019-05-07T05:46:12.595Z,3.23
2019-05-07T05:48:42.333Z,5.11
2019-05-07T05:51:34.664Z,4.17
2019-05-07T05:54:09.860Z,3.74
2019-05-07T05:56:53.761Z,3.24
2019-05-07T05:59:49.098Z,3.35
2019-05-07T06:02:35.488Z,3.52
2019-05-07T06:05:28.705Z,3.43
2019-05-07T06:08:03.744Z,3.80
2019-05-07T06:10:37.632Z,3.65
2019-05-07T06:13:16.500Z,3.75
2019-05-07T06:16:12.643Z,3.82
2019-05-07T06:18:47.959Z,3.97
2019-05-07T06:21:25.622Z,3.87
2019-05-07T06:23:56.147Z,4.34
2019-05-07T06:26:23.510Z,4.24
2019-05-07T06:28:51.907Z,4.11
2019-05-07T06:31:22.141Z,3.87
2019-05-07T06:33:49.552Z,4.09
2019-05-07T06:36:16.889Z,4.18
2019-05-07T06:39:09.675Z,4.36
2019-05-07T06:41:55.028Z,4.11
2019-05-07T06:44:23.408Z,4.48
2019-05-07T06:46:52.621Z,4.55
2019-05-07T06:49:22.122Z,4.58
2019-05-07T06:51:49.491Z,4.58
2019-05-07T06:54:16.850Z,4.58
2019-05-07T06:56:44.218Z,4.92
2019-05-07T06:59:22.684Z,4.98
2019-05-07T07:02:15.649Z,4.96
2019-05-07T07:04:51.884Z,4.96
2019-05-07T07:07:33.845Z,4.99
2019-05-07T07:10:22.686Z,5.08
2019-05-07T07:12:50.112Z,5.30
2019-05-07T07:15:17.461Z,5.29
2019-05-07T07:17:44.884Z,5.28
2019-05-07T07:20:12.810Z,5.38
2019-05-07T07:22:42.453Z,5.67
2019-05-07T07:25:11.752Z,5.61
2019-05-07T07:27:39.011Z,5.82
2019-05-07T07:30:28.955Z,6.14
2019-05-07T07:32:58.014Z,6.00
2019-05-07T07:35:25.371Z,5.74
2019-05-07T07:37:53.127Z,6.26
2019-05-07T07:40:44.471Z,6.22
2019-05-07T07:43:12.859Z,6.36
2019-05-07T07:45:42.081Z,6.20
2019-05-07T07:48:09.973Z,6.33
2019-05-07T07:50:37.337Z,6.69
2019-05-07T07:53:04.677Z,6.54
2019-05-07T07:55:37.965Z,6.96
2019-05-07T07:58:15.176Z,6.56
2019-05-07T08:00:56.003Z,6.80
2019-05-07T08:03:23.412Z,6.96
2019-05-07T08:05:51.852Z,7.18
2019-05-07T08:08:19.411Z,6.95
2019-05-07T08:10:46.846Z,7.02
2019-05-07T08:13:14.211Z,7.18
2019-05-07T08:15:43.010Z,7.42
2019-05-07T08:18:11.971Z,7.20
2019-05-07T08:20:39.612Z,7.54
2019-05-07T08:23:06.948Z,7.43
2019-05-07T08:25:52.195Z,7.88
2019-05-07T08:28:19.581Z,7.38
2019-05-07T08:31:12.631Z,7.97
2019-05-07T08:33:48.611Z,8.12
2019-05-07T08:36:17.209Z,7.71
2019-05-07T08:38:53.354Z,8.10
2019-05-07T08:41:22.522Z,7.92
2019-05-07T08:43:51.967Z,7.86
2019-05-07T08:46:44.701Z,8.17
2019-05-07T08:49:12.533Z,8.14
2019-05-07T08:51:39.923Z,8.24
2019-05-07T08:54:07.419Z,8.14
2019-05-07T08:56:35.032Z,8.18
2019-05-07T08:59:02.749Z,9.02
2019-05-07T09:01:32.414Z,8.67
2019-05-07T09:03:59.595Z,8.63
2019-05-07T09:06:35.759Z,8.86
2019-05-07T09:09:09.531Z,8.47
2019-05-07T09:11:36.878Z,8.42
2019-05-07T09:14:04.356Z,8.43
2019-05-07T09:16:31.978Z,8.78
2019-05-07T09:18:59.453Z,8.89
2019-05-07T09:21:26.814Z,8.79
2019-05-07T09:23:54.152Z,8.75
2019-05-07T09:26:26.756Z,8.69
2019-05-07T09:29:02.646Z,8.83
2019-05-07T09:31:38.746Z,8.77
2019-05-07T09:34:06.136Z,9.18
2019-05-07T09:36:42.359Z,8.96
2019-05-07T09:39:11.931Z,9.73
2019-05-07T09:41:38.873Z,9.04
2019-05-07T09:44:06.246Z,9.55
2019-05-07T09:46:33.648Z,9.61
2019-05-07T09:49:02.945Z,9.85
2019-05-07T09:51:32.237Z,9.87
2019-05-07T09:53:59.676Z,9.71
2019-05-07T09:56:27.021Z,10.03
2019-05-07T09:58:54.373Z,9.89
2019-05-07T10:01:24.045Z,10.03
2019-05-07T10:03:51.836Z,10.44
2019-05-07T10:06:19.393Z,10.09
2019-05-07T10:08:46.876Z,9.68
2019-05-07T10:11:22.539Z,9.97
2019-05-07T10:13:55.792Z,10.29
2019-05-07T10:16:31.102Z,10.20
2019-05-07T10:18:58.500Z,9.99
2019-05-07T10:21:25.996Z,10.48
2019-05-07T10:23:53.340Z,10.17
2019-05-07T10:26:22.557Z,10.76
2019-05-07T10:28:50.095Z,10.71
2019-05-07T10:31:17.426Z,11.66
2019-05-07T10:33:44.925Z,10.86
2019-05-07T10:36:12.598Z,10.70
2019-05-07T10:38:40.057Z,10.74
2019-05-07T10:41:07.477Z,11.49
2019-05-07T10:43:34.937Z,11.11
2019-05-07T10:46:20.901Z,11.37
2019-05-07T10:49:03.033Z,11.03
2019-05-07T10:51:32.225Z,11.17
2019-05-07T10:54:02.363Z,11.27
2019-05-07T10:56:29.837Z,11.35
2019-05-07T10:58:57.237Z,10.53
2019-05-07T11:01:48.263Z,11.17
2019-05-07T11:04:15.672Z,10.81
2019-05-07T11:06:43.040Z,10.99
2019-05-07T11:09:10.372Z,11.45
2019-05-07T11:11:37.727Z,11.39
2019-05-07T11:14:05.081Z,11.76
2019-05-07T11:16:37.279Z,11.71
2019-05-07T11:19:04.758Z,11.37
2019-05-07T11:21:33.418Z,11.43
2019-05-07T11:24:03.227Z,12.12
2019-05-07T11:26:32.701Z,11.23
2019-05-07T11:29:02.231Z,12.22
2019-05-07T11:31:29.312Z,12.49
2019-05-07T11:33:56.693Z,11.81
2019-05-07T11:36:24.054Z,11.48
2019-05-07T11:38:52.670Z,11.21
2019-05-07T11:41:28.258Z,11.36
2019-05-07T11:44:01.784Z,12.07
2019-05-07T11:46:36.077Z,11.64
2019-05-07T11:49:11.591Z,11.77
2019-05-07T11:51:52.694Z,11.59
2019-05-07T11:54:20.079Z,12.07
2019-05-07T11:56:47.452Z,12.12
2019-05-07T11:59:14.875Z,12.84
2019-05-07T12:01:47.667Z,13.09
2019-05-07T12:04:15.155Z,13.15
2019-05-07T12:06:42.550Z,13.11
2019-05-07T12:09:11.971Z,13.18
2019-05-07T12:11:39.219Z,12.81
2019-05-07T12:14:06.764Z,13.18
2019-05-07T12:16:34.177Z,12.71
2019-05-07T12:19:02.279Z,12.48
2019-05-07T12:21:29.937Z,12.76
2019-05-07T12:23:57.292Z,12.65
2019-05-07T12:26:24.632Z,12.82
2019-05-07T12:28:52.260Z,14.08
2019-05-07T12:31:37.619Z,13.73
2019-05-07T12:34:15.295Z,13.95
2019-05-07T12:36:42.679Z,13.92
2019-05-07T12:39:12.571Z,14.03
2019-05-07T12:41:41.515Z,14.07
2019-05-07T12:44:08.870Z,14.01
2019-05-07T12:46:36.606Z,14.21
2019-05-07T12:49:04.157Z,13.77
2019-05-07T12:51:37.804Z,13.58
2019-05-07T12:54:19.342Z,13.80
2019-05-07T12:56:46.770Z,13.61
2019-05-07T12:59:14.154Z,13.49
2019-05-07T13:02:21.526Z,12.84
2019-05-07T13:04:36.376Z,12.83
2019-05-07T13:07:11.697Z,13.30
2019-05-07T13:09:39.156Z,13.13
2019-05-07T13:12:06.534Z,13.36
2019-05-07T13:14:33.954Z,13.27
2019-05-07T13:17:02.794Z,13.72
2019-05-07T13:19:30.435Z,13.51
2019-05-07T13:21:57.862Z,13.24
2019-05-07T13:24:25.418Z,13.96
2019-05-07T13:26:52.734Z,13.88
2019-05-07T13:29:22.005Z,13.47
2019-05-07T13:31:53.908Z,13.94
2019-05-07T13:34:19.244Z,13.57
2019-05-07T13:36:51.634Z,13.38
2019-05-07T13:39:24.204Z,13.82
2019-05-07T13:42:03.350Z,13.98
2019-05-07T13:44:52.061Z,13.98
2019-05-07T13:47:24.953Z,14.18
2019-05-07T13:49:53.872Z,14.28
2019-05-07T13:52:23.020Z,14.18
2019-05-07T13:54:52.589Z,14.57
2019-05-07T13:57:20.116Z,14.59
2019-05-07T13:59:47.569Z,14.48
2019-05-07T14:02:16.118Z,14.92
2019-05-07T14:04:43.578Z,14.92
2019-05-07T14:07:12.636Z,15.45
2019-05-07T14:09:42.022Z,14.87
2019-05-07T14:12:09.452Z,14.68
2019-05-07T14:14:36.835Z,15.10
2019-05-07T14:17:04.303Z,15.16
2019-05-07T14:19:32.743Z,15.44
2019-05-07T14:22:00.294Z,14.68
2019-05-07T14:24:27.678Z,16.36
2019-05-07T14:26:55.043Z,16.37
2019-05-07T14:29:24.706Z,16.49
2019-05-07T14:32:04.981Z,15.78
2019-05-07T14:34:35.142Z,16.29
2019-05-07T14:37:15.181Z,16.72
2019-05-07T14:39:42.636Z,15.96
2019-05-07T14:42:13.145Z,16.15
2019-05-07T14:44:50.160Z,16.70
2019-05-07T14:47:19.130Z,16.67
2019-05-07T14:49:47.230Z,15.91
2019-05-07T14:52:28.121Z,15.40
2019-05-07T14:54:43.976Z,15.54
2019-05-07T14:57:11.558Z,16.27
2019-05-07T14:59:38.992Z,16.42
2019-05-07T15:02:06.528Z,16.86
2019-05-07T15:04:34.192Z,16.69
2019-05-07T15:07:02.533Z,16.34
2019-05-07T15:09:31.800Z,16.43
2019-05-07T15:11:59.361Z,17.17
2019-05-07T15:14:26.920Z,16.49
2019-05-07T15:16:57.674Z,16.75
2019-05-07T15:19:25.038Z,17.49
2019-05-07T15:21:55.647Z,16.73
2019-05-07T15:24:23.162Z,16.58
2019-05-07T15:26:52.590Z,16.78
2019-05-07T15:29:19.975Z,16.06
2019-05-07T15:32:12.713Z,16.01
2019-05-07T15:34:42.118Z,16.21
2019-05-07T15:37:12.147Z,16.44
2019-05-07T15:39:39.323Z,16.11
2019-05-07T15:42:07.112Z,17.26
2019-05-07T15:44:34.807Z,17.10
2019-05-07T15:47:06.752Z,17.63
2019-05-07T15:49:34.445Z,16.01
2019-05-07T15:52:04.775Z,17.35
2019-05-07T15:54:32.641Z,15.97
2019-05-07T15:57:03.376Z,16.73
2019-05-07T15:59:30.828Z,16.60
2019-05-07T16:02:07.177Z,17.09
2019-05-07T16:04:34.605Z,17.48
2019-05-07T16:07:05.125Z,16.56
2019-05-07T16:09:42.743Z,16.29
2019-05-07T16:12:11.875Z,17.60
2019-05-07T16:14:39.427Z,16.19
2019-05-07T16:17:29.141Z,16.80
2019-05-07T16:19:56.472Z,16.73
2019-05-07T16:22:29.251Z,16.33
2019-05-07T16:24:56.677Z,16.57
2019-05-07T16:27:24.075Z,17.34
2019-05-07T16:29:52.681Z,17.12
2019-05-07T16:32:23.907Z,16.42
2019-05-07T16:34:49.628Z,15.73
2019-05-07T16:37:16.996Z,17.03
2019-05-07T16:39:44.371Z,16.53
2019-05-07T16:42:11.735Z,17.01
2019-05-07T16:44:39.032Z,15.98
2019-05-07T16:47:06.416Z,15.16
2019-05-07T16:49:33.772Z,15.73
2019-05-07T16:52:01.873Z,15.89
2019-05-07T16:54:29.365Z,17.30
2019-05-07T16:57:28.270Z,16.10
2019-05-07T16:59:56.134Z,16.30
2019-05-07T17:02:27.291Z,16.06
2019-05-07T17:05:05.009Z,16.06
2019-05-07T17:07:33.864Z,16.40
2019-05-07T17:10:02.630Z,16.99
2019-05-07T17:12:32.258Z,16.97
2019-05-07T17:14:59.555Z,16.70
2019-05-07T17:17:27.995Z,16.63
2019-05-07T17:19:55.440Z,16.42
2019-05-07T17:22:22.882Z,16.88
2019-05-07T17:24:52.015Z,14.93
2019-05-07T17:27:22.725Z,15.06
2019-05-07T17:29:51.935Z,14.05
2019-05-07T17:32:19.420Z,13.73
2019-05-07T17:34:46.804Z,13.02
2019-05-07T17:37:14.202Z,13.22
2019-05-07T17:39:42.602Z,13.76
2019-05-07T17:42:11.846Z,13.65
2019-05-07T17:44:39.518Z,13.61
2019-05-07T17:47:06.894Z,12.16
2019-05-07T17:49:36.509Z,12.67
2019-05-07T17:52:03.664Z,12.47
2019-05-07T17:54:31.887Z,12.00
2019-05-07T17:57:01.828Z,11.90
2019-05-07T17:59:28.919Z,12.16
2019-05-07T18:02:09.305Z,12.24
2019-05-07T18:04:48.482Z,12.03
2019-05-07T18:07:12.002Z,11.65
2019-05-07T18:09:39.760Z,11.95
2019-05-07T18:12:12.102Z,11.76
2019-05-07T18:14:42.307Z,11.64
2019-05-07T18:17:30.761Z,11.34
2019-05-07T18:19:59.301Z,11.18
2019-05-07T18:22:26.717Z,10.92
2019-05-07T18:24:54.546Z,10.88
2019-05-07T18:27:24.899Z,10.58
2019-05-07T18:29:53.523Z,10.78
2019-05-07T18:32:21.925Z,10.68
2019-05-07T18:34:51.787Z,10.16
2019-05-07T18:37:23.003Z,10.24
2019-05-07T18:39:52.107Z,10.19
2019-05-07T18:45:12.442Z,10.58
2019-05-07T18:50:28.182Z,9.99
2019-05-07T18:52:57.379Z,9.97
2019-05-07T18:55:26.315Z,10.46
2019-05-07T18:57:59.661Z,10.46
2019-05-07T19:00:31.777Z,9.94
2019-05-07T19:03:00.497Z,9.97
2019-05-07T19:05:31.613Z,9.80
2019-05-07T19:08:07.806Z,10.10
2019-05-07T19:10:38.938Z,9.48
2019-05-07T19:13:07.426Z,9.89
2019-05-07T19:15:35.952Z,9.82
2019-05-07T19:18:06.399Z,9.50
2019-05-07T19:20:36.190Z,9.74
2019-05-07T19:23:04.901Z,10.01
2019-05-07T19:25:35.915Z,9.21
2019-05-07T19:28:06.403Z,8.93
2019-05-07T19:30:36.502Z,9.24
2019-05-07T19:33:12.284Z,9.76
2019-05-07T19:35:45.895Z,8.75
2019-05-07T19:38:17.994Z,9.09
2019-05-07T19:40:48.709Z,8.82
2019-05-07T19:43:22.920Z,8.76
2019-05-07T19:45:54.243Z,9.17
2019-05-07T19:48:26.874Z,8.76
2019-05-07T19:50:57.490Z,8.65
2019-05-07T19:53:33.317Z,8.31
2019-05-07T19:56:14.778Z,8.71
2019-05-07T19:58:58.836Z,8.47
2019-05-07T20:01:34.687Z,8.88
2019-05-07T20:06:54.554Z,8.96
2019-05-07T20:09:28.022Z,8.70
2019-05-07T20:12:02.701Z,7.97
2019-05-07T20:14:36.398Z,8.57
2019-05-07T20:17:05.494Z,9.39
2019-05-07T20:19:34.278Z,8.58
2019-05-07T20:22:02.383Z,7.90
2019-05-07T20:24:33.191Z,8.52
2019-05-07T20:27:06.685Z,9.19
2019-05-07T20:29:34.860Z,8.85
2019-05-07T20:32:03.248Z,7.68
2019-05-07T20:34:36.747Z,8.27
2019-05-07T20:37:07.180Z,9.01
2019-05-07T20:39:37.007Z,8.51
2019-05-07T20:42:06.391Z,8.03
2019-05-07T20:44:39.343Z,8.56
2019-05-07T20:47:08.053Z,8.27
2019-05-07T20:49:36.745Z,8.20
2019-05-07T20:52:04.892Z,8.28
2019-05-07T20:54:46.331Z,7.59
2019-05-07T20:57:22.620Z,7.91
2019-05-07T20:59:52.874Z,7.21
2019-05-07T21:02:22.846Z,8.28
2019-05-07T21:04:51.889Z,8.28
2019-05-07T21:07:22.019Z,7.90
2019-05-07T21:09:50.243Z,7.09
2019-05-07T21:12:18.057Z,7.56
2019-05-07T21:14:45.566Z,7.04
2019-05-07T21:17:13.783Z,6.87
2019-05-07T21:19:42.823Z,7.26
2019-05-07T21:22:12.849Z,6.82
2019-05-07T21:24:42.097Z,6.88
2019-05-07T21:27:09.236Z,6.92
2019-05-07T21:29:38.447Z,7.06
2019-05-07T21:32:05.829Z,7.01
2019-05-07T21:34:33.259Z,7.07
2019-05-07T21:37:03.063Z,7.58
2019-05-07T21:39:29.896Z,7.47
2019-05-07T21:41:57.475Z,6.88
2019-05-07T21:44:25.311Z,6.93
2019-05-07T21:46:55.139Z,6.50
2019-05-07T21:49:22.987Z,7.12
2019-05-07T21:51:52.262Z,7.46
2019-05-07T21:54:43.638Z,7.30
2019-05-07T21:57:29.643Z,7.22
2019-05-07T22:00:22.435Z,6.66
2019-05-07T22:02:52.443Z,6.61
2019-05-07T22:05:19.469Z,6.69
2019-05-07T22:07:46.883Z,7.43
2019-05-07T22:10:14.643Z,7.24
2019-05-07T22:12:42.020Z,7.40
2019-05-07T22:15:12.860Z,7.18
2019-05-07T22:17:44.174Z,7.55
2019-05-07T22:20:11.887Z,7.12
2019-05-07T22:22:39.016Z,6.84
2019-05-07T22:25:06.484Z,7.29
2019-05-07T22:27:33.869Z,7.09
2019-05-07T22:30:02.279Z,6.28
2019-05-07T22:32:49.352Z,7.15
2019-05-07T22:35:23.092Z,7.23
2019-05-07T22:37:51.965Z,6.44
2019-05-07T22:40:19.704Z,6.34
2019-05-07T22:42:47.153Z,6.18
2019-05-07T22:45:14.583Z,7.01
2019-05-07T22:47:42.107Z,7.14
2019-05-07T22:50:11.870Z,7.01
2019-05-07T22:52:38.804Z,6.64
2019-05-07T22:55:06.184Z,6.07
2019-05-07T22:57:49.070Z,6.63
2019-05-07T23:00:23.599Z,6.69
2019-05-07T23:02:51.986Z,6.62
2019-05-07T23:05:20.303Z,7.27
2019-05-07T23:07:47.676Z,7.24
2019-05-07T23:10:15.104Z,6.79
2019-05-07T23:12:42.471Z,6.81
2019-05-07T23:15:11.827Z,6.54
2019-05-07T23:17:39.103Z,7.31
2019-05-07T23:20:06.655Z,6.15
2019-05-07T23:22:33.969Z,6.12
2019-05-07T23:25:01.364Z,5.84
2019-05-07T23:27:28.731Z,6.47
2019-05-07T23:29:56.093Z,6.41
2019-05-07T23:32:23.475Z,5.84
2019-05-07T23:34:52.768Z,6.38
2019-05-07T23:37:22.317Z,5.83
2019-05-07T23:39:51.965Z,6.30
2019-05-07T23:42:23.126Z,6.81
2019-05-07T23:44:52.368Z,6.83
2019-05-07T23:47:19.896Z,7.04
2019-05-07T23:49:47.301Z,6.14
2019-05-07T23:52:14.653Z,6.26
2019-05-07T23:54:42.595Z,6.16
2019-05-07T23:57:14.914Z,6.12
2019-05-07T23:59:39.492Z,6.17
